createdAt,value
2023-04-12T00:02:44.867Z,2.99
2023-04-12T00:05:55.031Z,2.99
2023-04-12T00:08:58.742Z,3.04
2023-04-12T00:12:02.891Z,3.07
2023-04-12T00:15:08.263Z,3.09
2023-04-12T00:18:11.979Z,3.13
2023-04-12T00:21:19.596Z,3.19
2023-04-12T00:24:23.145Z,3.18
2023-04-12T00:27:26.704Z,3.17
2023-04-12T00:30:30.464Z,3.19
2023-04-12T00:33:35.483Z,3.17
2023-04-12T00:36:40.433Z,3.25
2023-04-12T00:39:44.395Z,3.29
2023-04-12T00:42:48.165Z,3.28
2023-04-12T00:45:51.804Z,3.27
2023-04-12T00:48:56.938Z,3.23
2023-04-12T00:52:06.367Z,3.22
2023-04-12T00:55:11.196Z,3.26
2023-04-12T00:58:16.207Z,3.24
2023-04-12T01:01:19.778Z,3.19
2023-04-12T01:04:26.535Z,3.19
2023-04-12T01:07:45.764Z,3.19
2023-04-12T01:11:02.543Z,3.17
2023-04-12T01:14:13.004Z,3.17
2023-04-12T01:17:25.134Z,3.17
2023-04-12T01:20:37.484Z,3.19
2023-04-12T01:24:08.082Z,3.22
2023-04-12T01:27:19.841Z,3.25
2023-04-12T01:30:26.198Z,3.26
2023-04-12T01:33:31.649Z,3.29
2023-04-12T01:36:36.794Z,3.36
2023-04-12T01:39:41.632Z,3.44
2023-04-12T01:42:46.664Z,3.41
2023-04-12T01:45:50.591Z,3.42
2023-04-12T01:48:55.880Z,3.48
2023-04-12T01:52:08.635Z,3.55
2023-04-12T01:55:16.332Z,3.53
2023-04-12T01:58:23.818Z,3.51
2023-04-12T02:01:29.700Z,3.50
2023-04-12T02:04:34.906Z,3.50
2023-04-12T02:07:38.894Z,3.56
2023-04-12T02:10:42.429Z,3.53
2023-04-12T02:13:47.251Z,3.54
2023-04-12T02:16:51.076Z,3.52
2023-04-12T02:19:55.738Z,3.52
2023-04-12T02:23:00.363Z,3.56
2023-04-12T02:26:04.674Z,3.61
2023-04-12T02:29:11.004Z,3.69
2023-04-12T02:32:14.475Z,3.71
2023-04-12T02:35:18.631Z,3.76
2023-04-12T02:38:22.113Z,3.84
2023-04-12T02:41:26.403Z,3.97
2023-04-12T02:44:32.340Z,4.11
2023-04-12T02:47:36.072Z,4.15
2023-04-12T02:50:39.819Z,4.14
2023-04-12T02:53:43.538Z,4.20
2023-04-12T02:56:47.000Z,4.19
2023-04-12T02:59:54.158Z,4.19
2023-04-12T03:02:59.145Z,4.19
2023-04-12T03:06:03.481Z,4.24
2023-04-12T03:09:06.979Z,4.20
2023-04-12T03:12:10.695Z,4.22
2023-04-12T03:15:15.625Z,4.18
2023-04-12T03:18:21.217Z,4.17
2023-04-12T03:21:24.745Z,4.16
2023-04-12T03:24:28.527Z,4.21
2023-04-12T03:27:32.076Z,4.14
2023-04-12T03:30:36.985Z,4.18
2023-04-12T03:33:41.024Z,4.10
2023-04-12T03:36:44.704Z,4.12
2023-04-12T03:39:48.878Z,4.10
2023-04-12T03:42:52.680Z,4.09
2023-04-12T03:45:57.624Z,4.05
2023-04-12T03:49:01.503Z,4.05
2023-04-12T03:52:06.080Z,4.03
2023-04-12T03:55:12.045Z,4.00
2023-04-12T03:58:16.434Z,4.03
2023-04-12T04:01:21.876Z,4.10
2023-04-12T04:04:25.614Z,4.13
2023-04-12T04:07:29.339Z,4.14
2023-04-12T04:10:33.106Z,4.11
2023-04-12T04:13:36.618Z,4.07
2023-04-12T04:16:41.476Z,4.08
2023-04-12T04:19:45.007Z,4.14
2023-04-12T04:22:48.905Z,4.16
2023-04-12T04:25:54.401Z,4.11
2023-04-12T04:29:01.777Z,3.97
2023-04-12T04:32:07.644Z,3.94
2023-04-12T04:35:12.382Z,3.86
2023-04-12T04:38:16.245Z,3.86
2023-04-12T04:41:22.656Z,3.82
2023-04-12T04:44:26.115Z,3.75
2023-04-12T04:47:31.700Z,3.71
2023-04-12T04:50:35.383Z,3.67
2023-04-12T04:53:40.991Z,3.65
2023-04-12T04:56:44.644Z,3.60
2023-04-12T04:59:49.381Z,3.55
2023-04-12T05:02:54.445Z,3.62
2023-04-12T05:05:58.256Z,3.59
2023-04-12T05:09:01.809Z,3.65
2023-04-12T05:12:05.935Z,3.67
2023-04-12T05:15:12.369Z,3.75
2023-04-12T05:18:18.166Z,3.88
2023-04-12T05:21:24.083Z,3.99
2023-04-12T05:24:27.965Z,4.05
2023-04-12T05:27:32.048Z,4.17
2023-04-12T05:30:35.557Z,4.25
2023-04-12T05:33:40.593Z,4.35
2023-04-12T05:36:44.609Z,4.40
2023-04-12T05:39:48.180Z,4.53
2023-04-12T05:42:51.731Z,4.66
2023-04-12T05:45:55.442Z,4.64
2023-04-12T05:49:00.385Z,4.67
2023-04-12T05:52:04.767Z,4.70
2023-04-12T05:55:09.215Z,4.72
2023-04-12T05:58:13.330Z,4.72
2023-04-12T06:01:21.242Z,4.76
2023-04-12T06:04:42.210Z,4.85
2023-04-12T06:07:50.651Z,4.83
2023-04-12T06:10:54.295Z,4.94
2023-04-12T06:14:00.637Z,4.91
2023-04-12T06:17:06.252Z,5.01
2023-04-12T06:20:13.208Z,5.06
2023-04-12T06:23:18.248Z,5.10
2023-04-12T06:26:22.067Z,5.09
2023-04-12T06:29:25.528Z,5.11
2023-04-12T06:32:29.566Z,5.12
2023-04-12T06:35:34.461Z,5.12
2023-04-12T06:38:38.261Z,5.19
2023-04-12T06:41:43.632Z,5.25
2023-04-12T06:44:47.176Z,5.26
2023-04-12T06:47:51.161Z,5.25
2023-04-12T06:50:56.063Z,5.21
2023-04-12T06:53:59.585Z,5.23
2023-04-12T06:57:03.391Z,5.31
2023-04-12T07:00:08.936Z,5.33
2023-04-12T07:03:12.730Z,5.43
2023-04-12T07:06:25.152Z,5.53
2023-04-12T07:09:33.448Z,5.64
2023-04-12T07:12:36.998Z,5.77
2023-04-12T07:15:40.921Z,5.86
2023-04-12T07:18:44.531Z,5.93
2023-04-12T07:21:49.612Z,5.90
2023-04-12T07:24:53.385Z,6.01
2023-04-12T07:27:57.057Z,6.06
2023-04-12T07:31:00.646Z,6.26
2023-04-12T07:34:04.441Z,6.48
2023-04-12T07:37:09.544Z,6.65
2023-04-12T07:40:14.777Z,6.68
2023-04-12T07:43:18.557Z,6.73
2023-04-12T07:46:22.404Z,6.91
2023-04-12T07:49:26.357Z,7.06
2023-04-12T07:52:31.474Z,7.18
2023-04-12T07:55:35.110Z,7.32
2023-04-12T07:58:39.048Z,7.25
2023-04-12T08:01:42.700Z,7.37
2023-04-12T08:04:46.723Z,7.64
2023-04-12T08:07:51.824Z,7.64
2023-04-12T08:10:55.428Z,7.76
2023-04-12T08:13:59.182Z,7.95
2023-04-12T08:17:03.051Z,8.07
2023-04-12T08:20:08.190Z,8.04
2023-04-12T08:23:13.687Z,8.12
2023-04-12T08:26:17.724Z,8.13
2023-04-12T08:29:21.305Z,8.06
2023-04-12T08:32:26.105Z,8.11
2023-04-12T08:35:29.862Z,7.89
2023-04-12T08:38:44.974Z,7.87
2023-04-12T08:41:50.706Z,7.92
2023-04-12T08:44:54.570Z,7.94
2023-04-12T08:47:58.654Z,7.90
2023-04-12T08:51:02.814Z,7.78
2023-04-12T08:54:08.447Z,7.67
2023-04-12T08:57:13.855Z,7.48
2023-04-12T09:00:19.289Z,7.35
2023-04-12T09:03:22.981Z,7.46
2023-04-12T09:06:26.663Z,7.37
2023-04-12T09:09:45.203Z,7.11
2023-04-12T09:12:50.224Z,7.03
2023-04-12T09:15:54.652Z,6.98
2023-04-12T09:19:02.485Z,7.07
2023-04-12T09:22:06.252Z,7.14
2023-04-12T09:25:11.704Z,7.43
2023-04-12T09:28:25.742Z,7.39
2023-04-12T09:31:29.906Z,7.49
2023-04-12T09:34:35.926Z,7.64
2023-04-12T09:37:40.333Z,7.67
2023-04-12T09:40:45.268Z,7.72
2023-04-12T09:43:48.731Z,7.62
2023-04-12T09:46:53.258Z,7.55
2023-04-12T09:49:57.021Z,7.46
2023-04-12T09:53:02.656Z,7.36
2023-04-12T09:56:11.716Z,7.42
2023-04-12T09:59:17.915Z,7.51
2023-04-12T10:02:28.915Z,7.52
2023-04-12T10:05:32.687Z,7.45
2023-04-12T10:08:38.879Z,7.72
2023-04-12T10:11:46.533Z,7.64
2023-04-12T10:14:52.755Z,7.63
2023-04-12T10:17:57.565Z,7.60
2023-04-12T10:21:02.264Z,7.67
2023-04-12T10:24:08.014Z,7.56
2023-04-12T10:27:15.639Z,7.48
2023-04-12T10:30:25.282Z,7.40
2023-04-12T10:33:32.679Z,7.42
2023-04-12T10:36:56.763Z,7.53
2023-04-12T10:40:05.062Z,7.37
2023-04-12T10:43:28.880Z,7.46
2023-04-12T10:46:51.546Z,7.41
2023-04-12T10:50:25.345Z,7.48
2023-04-12T10:53:29.087Z,7.50
2023-04-12T10:56:40.752Z,7.44
2023-04-12T10:59:57.539Z,7.57
2023-04-12T11:03:12.923Z,7.58
2023-04-12T11:06:27.218Z,7.54
2023-04-12T11:09:41.111Z,7.62
2023-04-12T11:12:51.139Z,7.68
2023-04-12T11:15:58.336Z,7.69
2023-04-12T11:19:02.423Z,7.79
2023-04-12T11:22:07.448Z,7.80
2023-04-12T11:25:11.478Z,7.73
2023-04-12T11:28:28.722Z,7.87
2023-04-12T11:31:40.114Z,7.78
2023-04-12T11:34:47.166Z,7.76
2023-04-12T11:37:51.286Z,7.80
2023-04-12T11:40:54.844Z,7.70
2023-04-12T11:43:58.593Z,7.72
2023-04-12T11:47:05.177Z,7.70
2023-04-12T11:50:10.810Z,7.62
2023-04-12T11:53:15.994Z,7.67
2023-04-12T11:56:19.633Z,7.66
2023-04-12T11:59:23.069Z,7.59
2023-04-12T12:02:32.897Z,7.50
2023-04-12T12:05:42.335Z,7.50
2023-04-12T12:08:46.440Z,7.56
2023-04-12T12:11:50.381Z,7.69
2023-04-12T12:14:53.869Z,7.69
2023-04-12T12:18:02.499Z,7.67
2023-04-12T12:21:12.410Z,7.76
2023-04-12T12:24:18.293Z,7.82
2023-04-12T12:27:25.211Z,7.69
2023-04-12T12:30:32.326Z,7.86
2023-04-12T12:33:46.573Z,7.93
2023-04-12T12:36:57.119Z,7.90
2023-04-12T12:40:13.712Z,8.15
2023-04-12T12:43:20.930Z,8.14
2023-04-12T12:46:24.941Z,8.35
2023-04-12T12:49:31.413Z,8.39
2023-04-12T12:52:35.013Z,8.31
2023-04-12T12:55:38.941Z,8.38
2023-04-12T12:58:43.150Z,8.46
2023-04-12T13:01:46.867Z,8.46
2023-04-12T13:04:52.049Z,8.27
2023-04-12T13:07:55.674Z,8.07
2023-04-12T13:10:59.120Z,8.12
2023-04-12T13:14:27.534Z,7.99
2023-04-12T13:17:53.006Z,7.96
2023-04-12T13:21:02.309Z,7.85
2023-04-12T13:24:09.519Z,7.80
2023-04-12T13:27:39.825Z,7.79
2023-04-12T13:30:43.578Z,7.77
2023-04-12T13:33:47.083Z,7.85
2023-04-12T13:36:52.199Z,7.90
2023-04-12T13:39:55.803Z,7.86
2023-04-12T13:42:59.514Z,7.81
2023-04-12T13:46:03.780Z,7.98
2023-04-12T13:49:07.353Z,8.15
2023-04-12T13:52:14.613Z,8.61
2023-04-12T13:55:22.774Z,9.01
2023-04-12T13:58:26.515Z,9.36
2023-04-12T14:01:30.030Z,9.44
2023-04-12T14:04:34.150Z,9.26
2023-04-12T14:07:39.214Z,9.73
2023-04-12T14:10:42.828Z,9.65
2023-04-12T14:13:49.518Z,9.51
2023-04-12T14:16:57.236Z,9.38
2023-04-12T14:20:01.478Z,9.31
2023-04-12T14:23:11.506Z,9.31
2023-04-12T14:26:17.179Z,9.38
2023-04-12T14:29:27.262Z,9.36
2023-04-12T14:32:30.966Z,9.15
2023-04-12T14:35:34.659Z,9.12
2023-04-12T14:38:42.984Z,9.30
2023-04-12T14:41:46.547Z,9.48
2023-04-12T14:44:50.230Z,9.48
2023-04-12T14:47:53.818Z,9.43
2023-04-12T14:50:57.315Z,9.34
2023-04-12T14:54:02.624Z,9.32
2023-04-12T14:57:06.703Z,9.27
2023-04-12T15:00:15.547Z,9.25
2023-04-12T15:03:20.944Z,9.32
2023-04-12T15:06:27.314Z,9.43
2023-04-12T15:09:32.462Z,9.61
2023-04-12T15:12:37.405Z,9.82
2023-04-12T15:15:41.766Z,9.99
2023-04-12T15:18:45.804Z,9.81
2023-04-12T15:21:51.119Z,9.51
2023-04-12T15:24:58.249Z,9.57
2023-04-12T15:28:01.956Z,9.65
2023-04-12T15:31:06.334Z,9.48
2023-04-12T15:34:10.273Z,9.55
2023-04-12T15:37:14.548Z,9.64
2023-04-12T15:40:21.260Z,9.57
2023-04-12T15:43:25.422Z,9.48
2023-04-12T15:46:29.225Z,9.64
2023-04-12T15:49:35.579Z,9.62
2023-04-12T15:52:42.912Z,9.53
2023-04-12T15:55:48.789Z,9.23
2023-04-12T15:58:52.701Z,9.30
2023-04-12T16:01:56.405Z,9.24
2023-04-12T16:05:00.646Z,9.12
2023-04-12T16:08:05.026Z,9.29
2023-04-12T16:11:12.501Z,9.26
2023-04-12T16:14:16.517Z,9.13
2023-04-12T16:17:20.999Z,9.08
2023-04-12T16:20:25.587Z,9.03
2023-04-12T16:23:29.541Z,9.04
2023-04-12T16:26:35.018Z,9.03
2023-04-12T16:29:38.914Z,9.05
2023-04-12T16:32:42.794Z,9.04
2023-04-12T16:35:46.650Z,8.94
2023-04-12T16:38:51.360Z,9.00
2023-04-12T16:41:57.314Z,8.83
2023-04-12T16:45:01.406Z,8.81
2023-04-12T16:48:05.595Z,8.75
2023-04-12T16:51:09.378Z,8.65
2023-04-12T16:54:13.008Z,8.52
2023-04-12T16:57:18.915Z,8.45
2023-04-12T17:00:23.863Z,8.38
2023-04-12T17:03:36.610Z,8.36
2023-04-12T17:06:41.576Z,8.33
2023-04-12T17:09:45.320Z,8.34
2023-04-12T17:12:52.883Z,8.37
2023-04-12T17:15:56.838Z,8.34
2023-04-12T17:19:00.801Z,8.32
2023-04-12T17:22:05.092Z,8.31
2023-04-12T17:25:10.768Z,8.15
2023-04-12T17:28:15.919Z,8.05
2023-04-12T17:31:22.534Z,8.01
2023-04-12T17:34:26.426Z,8.00
2023-04-12T17:37:30.042Z,7.94
2023-04-12T17:40:33.609Z,7.90
2023-04-12T17:43:38.841Z,7.79
2023-04-12T17:46:43.677Z,7.64
2023-04-12T17:49:47.686Z,6.67
2023-04-12T17:52:51.848Z,6.11
2023-04-12T17:55:55.370Z,5.95
2023-04-12T17:59:02.123Z,5.91
2023-04-12T18:02:06.137Z,5.76
2023-04-12T18:05:10.645Z,5.75
2023-04-12T18:08:15.195Z,5.71
2023-04-12T18:11:19.116Z,5.60
2023-04-12T18:14:24.900Z,5.66
2023-04-12T18:17:40.377Z,5.58
2023-04-12T18:20:47.259Z,5.55
2023-04-12T18:23:52.182Z,5.56
2023-04-12T18:26:56.484Z,5.58
2023-04-12T18:30:09.494Z,5.55
2023-04-12T18:33:13.364Z,5.52
2023-04-12T18:36:17.214Z,5.53
2023-04-12T18:39:21.560Z,5.43
2023-04-12T18:42:25.670Z,5.45
2023-04-12T18:45:41.597Z,5.41
2023-04-12T18:48:46.607Z,5.44
2023-04-12T18:51:50.305Z,5.53
2023-04-12T18:54:53.957Z,5.55
2023-04-12T18:57:57.671Z,5.60
2023-04-12T19:01:02.982Z,5.57
2023-04-12T19:04:07.013Z,5.63
2023-04-12T19:07:17.910Z,5.64
2023-04-12T19:10:28.260Z,5.66
2023-04-12T19:13:32.300Z,5.63
2023-04-12T19:16:37.835Z,5.55
2023-04-12T19:19:41.763Z,5.46
2023-04-12T19:22:45.566Z,5.40
2023-04-12T19:25:49.917Z,5.33
2023-04-12T19:28:55.738Z,5.22
2023-04-12T19:32:03.381Z,5.20
2023-04-12T19:35:10.193Z,5.07
2023-04-12T19:38:16.369Z,4.95
2023-04-12T19:41:21.283Z,4.84
2023-04-12T19:44:27.251Z,4.74
2023-04-12T19:47:54.770Z,4.72
2023-04-12T19:50:59.106Z,4.64
2023-04-12T19:54:03.708Z,4.60
2023-04-12T19:57:08.728Z,4.53
2023-04-12T20:00:19.888Z,4.44
2023-04-12T20:03:28.666Z,4.41
2023-04-12T20:06:32.598Z,4.39
2023-04-12T20:09:37.774Z,4.33
2023-04-12T20:12:42.104Z,4.31
2023-04-12T20:15:46.264Z,4.31
2023-04-12T20:18:58.040Z,4.32
2023-04-12T20:22:04.015Z,4.33
2023-04-12T20:25:10.914Z,4.18
2023-04-12T20:28:14.820Z,4.18
2023-04-12T20:31:19.449Z,4.15
2023-04-12T20:34:26.666Z,4.03
2023-04-12T20:37:30.272Z,3.99
2023-04-12T20:40:34.487Z,3.91
2023-04-12T20:43:45.176Z,3.93
2023-04-12T20:46:49.033Z,4.03
2023-04-12T20:49:57.117Z,4.08
2023-04-12T20:53:00.701Z,4.14
2023-04-12T20:56:04.507Z,4.07
2023-04-12T20:59:08.223Z,4.03
2023-04-12T21:02:13.237Z,3.98
2023-04-12T21:05:18.487Z,3.94
2023-04-12T21:08:22.796Z,3.91
2023-04-12T21:11:27.238Z,3.89
2023-04-12T21:14:30.789Z,3.78
2023-04-12T21:17:37.382Z,3.76
2023-04-12T21:20:42.608Z,3.73
2023-04-12T21:23:46.356Z,3.79
2023-04-12T21:26:57.447Z,3.83
2023-04-12T21:30:01.329Z,3.82
2023-04-12T21:33:05.027Z,3.84
2023-04-12T21:36:12.623Z,3.83
2023-04-12T21:39:16.304Z,3.85
2023-04-12T21:42:19.934Z,3.83
2023-04-12T21:45:39.030Z,3.82
2023-04-12T21:48:42.612Z,3.85
2023-04-12T21:51:49.301Z,3.86
2023-04-12T21:54:52.968Z,3.91
2023-04-12T21:57:56.501Z,3.93
2023-04-12T22:01:00.373Z,3.82
2023-04-12T22:04:04.861Z,3.73
2023-04-12T22:07:12.723Z,3.78
2023-04-12T22:10:16.405Z,3.77
2023-04-12T22:13:23.646Z,3.76
2023-04-12T22:16:28.126Z,3.78
2023-04-12T22:19:31.739Z,3.85
2023-04-12T22:22:38.140Z,3.78
2023-04-12T22:25:42.305Z,3.71
2023-04-12T22:28:48.511Z,3.57
2023-04-12T22:31:52.750Z,3.51
2023-04-12T22:35:08.463Z,3.42
2023-04-12T22:38:14.728Z,3.35
2023-04-12T22:41:19.192Z,3.32
2023-04-12T22:44:23.059Z,3.25
2023-04-12T22:47:28.124Z,3.35
2023-04-12T22:50:32.648Z,3.31
2023-04-12T22:53:37.738Z,3.20
2023-04-12T22:56:45.517Z,3.20
2023-04-12T22:59:49.028Z,3.16
2023-04-12T23:02:53.910Z,3.27
2023-04-12T23:05:57.901Z,3.31
2023-04-12T23:09:05.730Z,3.20
2023-04-12T23:12:09.348Z,3.18
2023-04-12T23:15:13.368Z,3.18
2023-04-12T23:18:17.199Z,3.14
2023-04-12T23:21:20.797Z,3.08
2023-04-12T23:24:25.892Z,3.05
2023-04-12T23:27:30.000Z,3.07
2023-04-12T23:30:33.606Z,2.97
2023-04-12T23:33:38.757Z,3.01
2023-04-12T23:36:42.341Z,2.97
2023-04-12T23:39:47.395Z,3.00
2023-04-12T23:42:50.911Z,2.96
2023-04-12T23:45:55.012Z,2.96
2023-04-12T23:48:58.569Z,2.90
2023-04-12T23:52:02.070Z,2.90
2023-04-12T23:55:08.603Z,2.93
2023-04-12T23:58:12.519Z,2.91
